createdAt,value
2023-06-17T05:25:03.244Z,100075.53
2023-06-17T05:27:39.924Z,100075.53
2023-06-17T05:30:15.390Z,100080.19
2023-06-17T05:32:51.003Z,100069.41
2023-06-17T05:35:25.499Z,100082.06
2023-06-17T05:38:00.430Z,100071.13
2023-06-17T05:40:36.120Z,100083.38
2023-06-17T05:43:10.886Z,100089.62
2023-06-17T05:45:45.825Z,100089.62
2023-06-17T05:48:20.796Z,100094.09
2023-06-17T05:50:55.289Z,100095.88
2023-06-17T05:53:30.118Z,100096.06
2023-06-17T05:56:10.887Z,100085.41
2023-06-17T05:58:45.957Z,100096.84
2023-06-17T06:02:54.144Z,100091.22
2023-06-17T06:05:29.413Z,100091.22
2023-06-17T06:08:03.879Z,100087.47
2023-06-17T06:10:38.657Z,100091.25
2023-06-17T06:13:13.140Z,100091.53
2023-06-17T06:15:47.893Z,100089.69
2023-06-17T06:18:23.865Z,100091.59
2023-06-17T06:20:59.302Z,100100.50
2023-06-17T06:23:33.663Z,100093.09
2023-06-17T06:26:08.731Z,100100.94
2023-06-17T06:28:44.318Z,100101.25
2023-06-17T06:31:20.194Z,100095.69
2023-06-17T06:33:56.174Z,100090.09
2023-06-17T06:36:30.921Z,100093.41
2023-06-17T06:39:05.513Z,100093.88
2023-06-17T06:41:40.215Z,100102.91
2023-06-17T06:44:23.515Z,100095.53
2023-06-17T06:46:59.016Z,100092.34
2023-06-17T06:49:35.061Z,100101.72
2023-06-17T06:52:09.843Z,100102.78
2023-06-17T06:54:44.194Z,100099.44
2023-06-17T06:57:19.404Z,100107.31
2023-06-17T06:59:53.828Z,100111.00
2023-06-17T07:02:29.038Z,100117.63
2023-06-17T07:05:05.674Z,100127.12
2023-06-17T07:07:41.746Z,100118.16
2023-06-17T07:10:16.372Z,100114.84
2023-06-17T07:12:51.136Z,100122.47
2023-06-17T07:15:25.688Z,100114.44
2023-06-17T07:18:00.495Z,100119.81
2023-06-17T07:20:37.447Z,100122.97
2023-06-17T07:23:12.493Z,100123.91
2023-06-17T07:25:46.924Z,100121.34
2023-06-17T07:28:21.623Z,100117.47
2023-06-17T07:30:57.164Z,100110.38
2023-06-17T07:33:32.841Z,100120.12
2023-06-17T07:36:08.987Z,100123.72
2023-06-17T07:38:43.900Z,100113.75
2023-06-17T07:41:18.312Z,100118.66
2023-06-17T07:43:53.035Z,100110.44
2023-06-17T07:46:27.674Z,100107.75
2023-06-17T07:49:02.421Z,100110.25
2023-06-17T07:51:39.284Z,100107.66
2023-06-17T07:54:14.193Z,100108.03
2023-06-17T07:56:48.544Z,100104.34
2023-06-17T07:59:23.373Z,100106.59
2023-06-17T08:01:58.138Z,100105.13
2023-06-17T08:04:32.727Z,100100.09
2023-06-17T08:07:08.622Z,100095.38
2023-06-17T08:09:43.553Z,100112.50
2023-06-17T08:12:18.032Z,100102.47
2023-06-17T08:14:54.221Z,100107.31
2023-06-17T08:17:28.694Z,100099.62
2023-06-17T08:20:04.102Z,100104.53
2023-06-17T08:22:39.958Z,100092.78
2023-06-17T08:25:14.827Z,100105.59
2023-06-17T08:27:51.928Z,100102.09
2023-06-17T08:30:27.032Z,100097.16
2023-06-17T08:33:01.395Z,100108.22
2023-06-17T08:35:36.166Z,100102.44
2023-06-17T08:38:11.949Z,100108.31
2023-06-17T08:40:47.579Z,100101.22
2023-06-17T08:43:23.085Z,100103.59
2023-06-17T08:45:59.125Z,100110.88
2023-06-17T08:48:34.132Z,100103.72
2023-06-17T08:51:09.321Z,100103.97
2023-06-17T08:53:46.910Z,100098.72
2023-06-17T08:56:21.860Z,100100.50
2023-06-17T08:58:56.495Z,100099.16
2023-06-17T09:01:31.304Z,100106.50
2023-06-17T09:04:06.067Z,100095.41
2023-06-17T09:06:41.229Z,100094.91
2023-06-17T09:09:17.149Z,100108.16
2023-06-17T09:11:53.232Z,100105.41
2023-06-17T09:14:28.222Z,100105.09
2023-06-17T09:17:04.397Z,100105.13
2023-06-17T09:19:42.261Z,100104.91
2023-06-17T09:22:19.548Z,100103.31
2023-06-17T09:25:00.416Z,100110.91
2023-06-17T09:27:35.135Z,100115.84
2023-06-17T09:30:11.627Z,100117.91
2023-06-17T09:32:46.615Z,100121.84
2023-06-17T09:35:21.347Z,100108.59
2023-06-17T09:38:03.379Z,100118.19
2023-06-17T09:40:40.632Z,100112.28
2023-06-17T09:43:25.722Z,100107.63
2023-06-17T09:46:02.463Z,100108.44
2023-06-17T09:48:40.082Z,100112.69
2023-06-17T09:51:16.542Z,100120.16
2023-06-17T09:53:52.693Z,100111.19
2023-06-17T09:56:28.691Z,100114.28
2023-06-17T09:59:04.449Z,100115.84
2023-06-17T10:01:40.973Z,100110.25
2023-06-17T10:04:15.929Z,100108.06
2023-06-17T10:06:54.322Z,100107.28
2023-06-17T10:09:29.278Z,100114.41
2023-06-17T10:12:07.392Z,100113.44
2023-06-17T10:14:42.800Z,100111.47
2023-06-17T10:17:19.181Z,100111.94
2023-06-17T10:19:55.188Z,100116.78
2023-06-17T10:22:30.308Z,100117.31
2023-06-17T10:25:05.406Z,100103.81
2023-06-17T10:27:41.822Z,100109.75
2023-06-17T10:30:26.896Z,100115.22
2023-06-17T10:33:03.602Z,100110.09
2023-06-17T10:35:42.105Z,100110.56
2023-06-17T10:38:30.623Z,100118.28
2023-06-17T10:41:05.308Z,100113.22
2023-06-17T10:43:41.009Z,100109.34
2023-06-17T10:46:15.694Z,100103.53
2023-06-17T10:48:50.040Z,100110.31
2023-06-17T10:51:36.512Z,100107.34
2023-06-17T10:54:16.168Z,100106.25
2023-06-17T10:56:53.790Z,100097.41
2023-06-17T10:59:32.822Z,100104.53
2023-06-17T11:02:08.971Z,100103.97
2023-06-17T11:04:43.389Z,100105.44
2023-06-17T11:07:18.064Z,100095.00
2023-06-17T11:09:52.461Z,100096.91
2023-06-17T11:12:27.204Z,100102.66
2023-06-17T11:15:04.916Z,100097.25
2023-06-17T11:17:39.749Z,100097.78
2023-06-17T11:20:14.670Z,100100.56
2023-06-17T11:22:49.383Z,100090.78
2023-06-17T11:25:36.039Z,100095.28
2023-06-17T11:28:16.099Z,100082.97
2023-06-17T11:30:52.289Z,100089.31
2023-06-17T11:33:27.197Z,100093.44
2023-06-17T11:36:01.886Z,100089.75
2023-06-17T11:38:36.816Z,100082.19
2023-06-17T11:41:11.242Z,100081.72
2023-06-17T11:43:46.758Z,100088.00
2023-06-17T11:46:24.444Z,100080.84
2023-06-17T11:48:59.304Z,100079.50
2023-06-17T11:51:34.036Z,100079.97
2023-06-17T11:54:09.373Z,100078.97
2023-06-17T11:56:43.711Z,100066.72
2023-06-17T11:59:21.028Z,100065.59
2023-06-17T12:01:57.944Z,100055.78
2023-06-17T12:04:33.327Z,100062.50
2023-06-17T12:07:08.766Z,100059.41
2023-06-17T12:09:53.336Z,100063.66
2023-06-17T12:12:29.726Z,100066.06
2023-06-17T12:15:15.090Z,100063.94
2023-06-17T12:17:52.066Z,100056.06
2023-06-17T12:20:26.859Z,100050.63
2023-06-17T12:23:01.274Z,100061.28
2023-06-17T12:25:36.332Z,100064.97
2023-06-17T12:28:10.705Z,100052.84
2023-06-17T12:30:45.485Z,100049.38
2023-06-17T12:33:21.422Z,100062.62
2023-06-17T12:35:56.175Z,100061.13
2023-06-17T12:38:32.499Z,100062.09
2023-06-17T12:41:07.598Z,100056.63
2023-06-17T12:43:42.433Z,100053.44
2023-06-17T12:46:18.527Z,100046.22
2023-06-17T12:48:54.531Z,100056.63
2023-06-17T12:51:29.242Z,100048.97
2023-06-17T12:54:04.484Z,100058.31
2023-06-17T12:56:40.807Z,100059.81
2023-06-17T12:59:15.793Z,100049.81
2023-06-17T13:01:50.514Z,100052.31
2023-06-17T13:04:27.091Z,100052.59
2023-06-17T13:07:02.299Z,100053.94
2023-06-17T13:09:37.449Z,100054.69
2023-06-17T13:12:12.552Z,100051.44
2023-06-17T13:14:48.224Z,100061.37
2023-06-17T13:17:22.923Z,100054.78
2023-06-17T13:19:58.726Z,100055.56
2023-06-17T13:22:33.510Z,100063.50
2023-06-17T13:25:08.653Z,100071.13
2023-06-17T13:27:43.358Z,100071.91
2023-06-17T13:30:17.727Z,100061.19
2023-06-17T13:32:52.856Z,100064.22
2023-06-17T13:35:28.667Z,100062.56
2023-06-17T13:38:04.163Z,100066.00
2023-06-17T13:40:38.497Z,100069.66
2023-06-17T13:43:13.516Z,100070.97
2023-06-17T13:45:48.565Z,100060.13
2023-06-17T13:48:23.393Z,100060.91
2023-06-17T13:50:59.357Z,100072.13
2023-06-17T13:53:34.023Z,100063.13
2023-06-17T13:56:08.470Z,100060.13
2023-06-17T13:58:46.438Z,100059.56
2023-06-17T14:02:59.612Z,100055.97
2023-06-17T14:05:35.033Z,100055.97
2023-06-17T14:08:09.576Z,100058.19
2023-06-17T14:10:44.337Z,100059.59
2023-06-17T14:13:19.008Z,100056.97
2023-06-17T14:15:53.925Z,100061.75
2023-06-17T14:18:29.657Z,100063.25
2023-06-17T14:21:04.396Z,100045.53
2023-06-17T14:23:53.624Z,100051.13
2023-06-17T14:26:28.365Z,100053.75
2023-06-17T14:29:03.183Z,100058.84
2023-06-17T14:31:38.945Z,100053.22
2023-06-17T14:34:14.837Z,100055.19
2023-06-17T14:36:49.571Z,100053.00
2023-06-17T14:39:24.203Z,100059.47
2023-06-17T14:41:59.025Z,100035.31
2023-06-17T14:44:33.320Z,100040.97
2023-06-17T14:47:08.849Z,100045.41
2023-06-17T14:49:44.907Z,100033.78
2023-06-17T14:52:19.959Z,100026.69
2023-06-17T14:54:54.423Z,100033.59
2023-06-17T14:57:30.413Z,100028.84
2023-06-17T15:00:08.427Z,100037.16
2023-06-17T15:02:57.505Z,100030.72
2023-06-17T15:05:37.273Z,100022.41
2023-06-17T15:08:11.759Z,100020.63
2023-06-17T15:10:46.088Z,100028.56
2023-06-17T15:13:20.824Z,100031.81
2023-06-17T15:15:55.737Z,100020.41
2023-06-17T15:18:30.533Z,100020.72
2023-06-17T15:21:06.326Z,100022.16
2023-06-17T15:23:41.050Z,100018.41
2023-06-17T15:26:15.449Z,100024.28
2023-06-17T15:28:50.197Z,100015.94
2023-06-17T15:31:24.647Z,100027.59
2023-06-17T15:34:00.344Z,100026.56
2023-06-17T15:36:36.738Z,100029.22
2023-06-17T15:39:19.307Z,100031.47
2023-06-17T15:41:55.271Z,100020.53
2023-06-17T15:44:30.049Z,100016.19
2023-06-17T15:47:04.817Z,100016.84
2023-06-17T15:49:39.483Z,100016.81
2023-06-17T15:52:15.257Z,100022.63
2023-06-17T15:54:49.898Z,100013.37
2023-06-17T15:57:24.955Z,100016.16
2023-06-17T15:59:59.697Z,100020.00
2023-06-17T16:02:36.465Z,100025.47
2023-06-17T16:05:11.671Z,100026.00
2023-06-17T16:07:47.620Z,100022.69
2023-06-17T16:10:24.921Z,100021.75
2023-06-17T16:12:59.295Z,100022.44
2023-06-17T16:15:33.910Z,100019.47
2023-06-17T16:18:08.393Z,100010.28
2023-06-17T16:20:43.138Z,100026.00
2023-06-17T16:23:19.541Z,100029.75
2023-06-17T16:25:56.044Z,100030.37
2023-06-17T16:28:30.666Z,100027.06
2023-06-17T16:31:07.995Z,100023.78
2023-06-17T16:33:43.124Z,100029.00
2023-06-17T16:36:17.921Z,100035.44
2023-06-17T16:38:54.211Z,100040.22
2023-06-17T16:41:29.050Z,100043.72
2023-06-17T16:44:03.681Z,100054.69
2023-06-17T16:46:38.464Z,100055.94
2023-06-17T16:49:12.794Z,100069.31
2023-06-17T16:51:48.027Z,100060.38
2023-06-17T16:54:23.804Z,100058.44
2023-06-17T16:56:58.528Z,100064.84
2023-06-17T16:59:32.887Z,100073.50
2023-06-17T17:02:09.165Z,100077.69
2023-06-17T17:04:43.728Z,100079.97
2023-06-17T17:07:18.549Z,100074.41
2023-06-17T17:09:54.865Z,100072.59
2023-06-17T17:12:29.766Z,100072.75
2023-06-17T17:15:04.541Z,100073.66
2023-06-17T17:17:39.537Z,100075.94
2023-06-17T17:20:14.539Z,100086.47
2023-06-17T17:22:49.380Z,100080.28
2023-06-17T17:25:25.070Z,100080.22
2023-06-17T17:28:00.124Z,100090.03
2023-06-17T17:30:34.612Z,100088.00
2023-06-17T17:33:09.583Z,100095.16
2023-06-17T17:35:44.522Z,100095.34
2023-06-17T17:38:19.392Z,100101.50
2023-06-17T17:40:55.483Z,100093.47
2023-06-17T17:43:31.105Z,100093.66
2023-06-17T17:46:06.421Z,100095.34
2023-06-17T17:48:41.878Z,100088.59
2023-06-17T17:51:17.939Z,100098.72
2023-06-17T17:53:52.790Z,100095.59
2023-06-17T17:56:28.747Z,100106.97
2023-06-17T17:59:03.526Z,100106.16
2023-06-17T18:01:38.068Z,100115.47
2023-06-17T18:04:12.732Z,100113.78
2023-06-17T18:06:47.089Z,100110.97
2023-06-17T18:09:21.888Z,100110.97
2023-06-17T18:11:57.626Z,100117.59
2023-06-17T18:14:32.251Z,100122.28
2023-06-17T18:17:06.840Z,100120.78
2023-06-17T18:19:44.515Z,100126.22
2023-06-17T18:22:18.908Z,100130.91
2023-06-17T18:24:53.568Z,100141.75
2023-06-17T18:27:35.873Z,100141.19
2023-06-17T18:30:12.600Z,100139.81
2023-06-17T18:32:47.041Z,100159.22
2023-06-17T18:35:21.843Z,100158.84
2023-06-17T18:37:56.378Z,100153.34
2023-06-17T18:40:31.231Z,100159.81
2023-06-17T18:43:09.276Z,100157.09
2023-06-17T18:45:43.895Z,100154.72
2023-06-17T18:48:18.539Z,100166.69
2023-06-17T18:50:53.383Z,100171.41
2023-06-17T18:53:27.722Z,100168.59
2023-06-17T18:56:02.454Z,100169.69
2023-06-17T18:58:38.222Z,100172.31
2023-06-17T19:01:13.093Z,100169.69
2023-06-17T19:03:47.625Z,100176.84
2023-06-17T19:06:22.738Z,100180.06
2023-06-17T19:08:57.357Z,100182.00
2023-06-17T19:11:32.040Z,100187.81
2023-06-17T19:14:07.877Z,100188.56
2023-06-17T19:16:43.611Z,100186.63
2023-06-17T19:19:18.021Z,100187.28
2023-06-17T19:21:52.693Z,100190.28
2023-06-17T19:24:27.063Z,100194.06
2023-06-17T19:27:02.193Z,100205.38
2023-06-17T19:29:38.197Z,100201.59
2023-06-17T19:32:13.022Z,100207.22
2023-06-17T19:34:48.523Z,100203.97
2023-06-17T19:37:23.262Z,100206.84
2023-06-17T19:39:57.835Z,100211.41
2023-06-17T19:42:32.470Z,100210.19
2023-06-17T19:45:10.937Z,100206.97
2023-06-17T19:47:45.823Z,100207.19
2023-06-17T19:50:20.939Z,100214.47
2023-06-17T19:52:56.156Z,100212.53
2023-06-17T19:55:30.973Z,100215.22
2023-06-17T19:58:05.739Z,100218.75
2023-06-17T20:00:41.451Z,100212.53
2023-06-17T20:03:16.914Z,100213.22
2023-06-17T20:05:51.744Z,100214.50
2023-06-17T20:08:26.671Z,100218.97
2023-06-17T20:11:01.197Z,100215.81
2023-06-17T20:13:35.921Z,100219.09
2023-06-17T20:16:12.889Z,100216.84
2023-06-17T20:18:47.779Z,100215.41
2023-06-17T20:21:22.818Z,100220.75
2023-06-17T20:23:57.624Z,100210.56
2023-06-17T20:26:32.603Z,100212.69
2023-06-17T20:29:07.398Z,100213.06
2023-06-17T20:31:43.438Z,100208.16
2023-06-17T20:34:18.687Z,100218.00
2023-06-17T20:36:53.747Z,100218.53
2023-06-17T20:39:28.506Z,100222.75
2023-06-17T20:42:02.935Z,100222.16
2023-06-17T20:44:37.673Z,100227.19
2023-06-17T20:47:13.632Z,100226.50
2023-06-17T20:49:48.802Z,100223.72
2023-06-17T20:52:23.302Z,100223.72
2023-06-17T20:54:58.102Z,100228.38
2023-06-17T20:57:32.961Z,100224.38
2023-06-17T21:00:09.241Z,100227.37
2023-06-17T21:02:45.462Z,100228.88
2023-06-17T21:05:20.341Z,100225.69
2023-06-17T21:07:56.557Z,100234.75
2023-06-17T21:10:31.369Z,100235.16
2023-06-17T21:13:05.762Z,100235.50
2023-06-17T21:15:40.686Z,100232.66
2023-06-17T21:18:16.560Z,100239.25
2023-06-17T21:20:51.338Z,100231.44
2023-06-17T21:23:26.261Z,100238.00
2023-06-17T21:26:01.264Z,100246.28
2023-06-17T21:28:35.856Z,100244.19
2023-06-17T21:31:10.546Z,100236.16
2023-06-17T21:33:47.198Z,100238.38
2023-06-17T21:36:21.884Z,100238.28
2023-06-17T21:38:56.198Z,100237.37
2023-06-17T21:41:30.848Z,100244.47
2023-06-17T21:44:05.412Z,100239.28
2023-06-17T21:46:40.167Z,100239.47
2023-06-17T21:49:16.038Z,100239.75
2023-06-17T21:51:51.495Z,100234.75
2023-06-17T21:54:25.825Z,100244.75
2023-06-17T21:57:00.544Z,100245.09
2023-06-17T21:59:35.172Z,100247.59
2023-06-17T22:02:59.711Z,100246.84
2023-06-17T22:05:35.104Z,100246.84
2023-06-17T22:08:09.514Z,100255.13
2023-06-17T22:10:44.206Z,100257.78
2023-06-17T22:13:19.040Z,100255.88
2023-06-17T22:15:53.743Z,100251.75
2023-06-17T22:18:29.625Z,100252.84
2023-06-17T22:21:04.537Z,100254.44
2023-06-17T22:23:38.941Z,100252.72
2023-06-17T22:26:13.634Z,100241.31
2023-06-17T22:28:48.016Z,100249.12
2023-06-17T22:31:22.879Z,100243.19
2023-06-17T22:33:58.608Z,100246.50
2023-06-17T22:36:33.324Z,100241.00
2023-06-17T22:39:07.870Z,100246.56
2023-06-17T22:41:42.616Z,100253.56
2023-06-17T22:44:17.021Z,100241.97
2023-06-17T22:46:51.681Z,100255.72
2023-06-17T22:49:27.669Z,100260.03
2023-06-17T22:52:02.389Z,100253.19
2023-06-17T22:54:36.796Z,100250.69
2023-06-17T22:57:11.514Z,100254.78
2023-06-17T22:59:45.934Z,100260.16
2023-06-17T23:02:20.675Z,100262.19
2023-06-17T23:04:56.441Z,100255.66
2023-06-17T23:07:31.167Z,100246.06
2023-06-17T23:10:06.281Z,100242.28
2023-06-17T23:12:41.102Z,100239.25
2023-06-17T23:15:16.195Z,100248.34
2023-06-17T23:17:51.140Z,100258.72
2023-06-17T23:20:26.895Z,100252.66
2023-06-17T23:23:04.256Z,100249.84
2023-06-17T23:25:38.554Z,100255.94
2023-06-17T23:28:13.305Z,100260.25
2023-06-17T23:30:47.686Z,100259.22
2023-06-17T23:33:22.466Z,100262.78
2023-06-17T23:35:58.183Z,100261.50
2023-06-17T23:38:33.634Z,100264.78
2023-06-17T23:44:54.737Z,100264.03
2023-06-17T23:48:04.966Z,100260.00
2023-06-17T23:50:59.672Z,100264.00
2023-06-17T23:53:34.863Z,100263.75
2023-06-17T23:56:09.839Z,100265.53
